aviador You're here:

EPLL Decoded Metar

LODZ in POLAND
Report Time2017-08-23 03:30:00
UTC Time2017-08-23 04:04:32
Flight Rules ifr IFR
Wind270° at 08 kt
W.Decomp.*RWY 25: 7.7 kt HW 2.2 kt RCW
W.Rank270° ranks 2
Current wind is below 270° avg. (8.5)
Visibility9999 m
Phenomena:N/A
Clouds:Broken 006 Hf
Overcast 007 Hf
Expected CloudBase > 400 ft AGL from Temp-Dew spread
Ceiling600 ft
Temp12°C (ISA -2)
Dew Point11°C (94% RH)
AAT9.5°C
QNH1016 hPa
Density Alt466 ft
Elevation604 ft
Report Wrong Elevation
Raw Report
EPLL 230330Z 27008KT 9999 BKN006 OVC007 12/11 Q1016=

Extra information for EPLL:More info

Metar Taf Metar & Taf Last 4 Metars F.Rules Stats Wind Profile Meteogram Temp Stats Airport Information Weather charts Add Link Nearby VenuesMetar ALERT Operation Metar Decoded Social comments